createdAt,value
2022-09-18T00:01:33.075Z,11.30
2022-09-18T00:04:04.832Z,11.30
2022-09-18T00:06:38.490Z,11.30
2022-09-18T00:09:11.638Z,11.30
2022-09-18T00:11:46.640Z,11.20
2022-09-18T00:14:19.271Z,11.20
2022-09-18T00:16:47.516Z,11.20
2022-09-18T00:19:16.602Z,11.10
2022-09-18T00:21:47.526Z,11.10
2022-09-18T00:24:17.696Z,11.10
2022-09-18T00:26:46.283Z,11.10
2022-09-18T00:29:14.661Z,11.10
2022-09-18T00:31:42.559Z,11.10
2022-09-18T00:34:14.726Z,11.00
2022-09-18T00:36:43.889Z,11.00
2022-09-18T00:39:11.869Z,11.00
2022-09-18T00:41:43.694Z,11.00
2022-09-18T00:44:32.862Z,10.90
2022-09-18T00:47:12.597Z,10.90
2022-09-18T00:49:56.951Z,10.90
2022-09-18T00:52:30.660Z,10.90
2022-09-18T00:55:07.334Z,10.90
2022-09-18T00:57:41.753Z,10.90
2022-09-18T01:00:14.581Z,10.90
2022-09-18T01:02:46.399Z,11.00
2022-09-18T01:05:18.398Z,10.90
2022-09-18T01:08:11.980Z,10.90
2022-09-18T01:10:51.230Z,11.00
2022-09-18T01:13:57.877Z,11.00
2022-09-18T01:16:52.100Z,11.00
2022-09-18T01:19:37.920Z,11.10
2022-09-18T01:22:36.152Z,11.20
2022-09-18T01:25:15.602Z,11.20
2022-09-18T01:28:47.875Z,11.10
2022-09-18T01:31:45.209Z,11.10
2022-09-18T01:34:26.987Z,11.20
2022-09-18T01:37:09.106Z,11.10
2022-09-18T01:39:51.014Z,11.10
2022-09-18T01:42:22.977Z,11.10
2022-09-18T01:44:54.679Z,11.10
2022-09-18T01:47:29.025Z,11.00
2022-09-18T01:50:00.813Z,10.90
2022-09-18T01:52:38.636Z,10.90
2022-09-18T01:55:15.354Z,10.90
2022-09-18T01:58:13.955Z,10.90
2022-09-18T02:00:50.178Z,10.90
2022-09-18T02:03:27.027Z,10.90
2022-09-18T02:06:26.532Z,10.90
2022-09-18T02:08:56.827Z,10.90
2022-09-18T02:11:24.991Z,10.90
2022-09-18T02:14:01.361Z,10.90
2022-09-18T02:16:41.929Z,10.90
2022-09-18T02:19:35.832Z,10.90
2022-09-18T02:22:09.544Z,10.90
2022-09-18T02:24:41.856Z,10.90
2022-09-18T02:27:12.893Z,10.80
2022-09-18T02:29:42.824Z,10.90
2022-09-18T02:32:10.258Z,10.80
2022-09-18T02:34:37.568Z,10.80
2022-09-18T02:37:49.691Z,10.80
2022-09-18T02:40:31.623Z,10.80
2022-09-18T02:43:27.181Z,10.80
2022-09-18T02:46:46.265Z,10.70
2022-09-18T02:49:44.849Z,10.70
2022-09-18T02:52:29.025Z,10.70
2022-09-18T02:55:11.877Z,10.70
2022-09-18T02:57:52.510Z,10.70
2022-09-18T03:00:20.839Z,10.70
2022-09-18T03:02:51.074Z,10.70
2022-09-18T03:05:18.570Z,10.60
2022-09-18T03:07:45.802Z,10.60
2022-09-18T03:10:13.136Z,10.70
2022-09-18T03:12:41.082Z,10.80
2022-09-18T03:15:09.668Z,10.90
2022-09-18T03:17:37.136Z,10.90
2022-09-18T03:20:07.414Z,11.00
2022-09-18T03:22:34.651Z,11.00
2022-09-18T03:25:01.875Z,11.10
2022-09-18T03:27:29.140Z,11.20
2022-09-18T03:29:56.666Z,11.30
2022-09-18T03:32:23.989Z,11.30
2022-09-18T03:34:51.213Z,11.40
2022-09-18T03:37:18.686Z,11.40
2022-09-18T03:39:46.010Z,11.40
2022-09-18T03:42:13.225Z,11.30
2022-09-18T03:44:40.428Z,11.30
2022-09-18T03:47:09.669Z,11.30
2022-09-18T03:49:36.927Z,11.30
2022-09-18T03:52:04.402Z,11.30
2022-09-18T03:54:31.856Z,11.30
2022-09-18T03:56:59.042Z,11.30
2022-09-18T03:59:26.300Z,11.30
2022-09-18T04:01:53.601Z,11.30
2022-09-18T04:04:20.879Z,11.40
2022-09-18T04:06:48.061Z,11.40
2022-09-18T04:09:16.546Z,11.50
2022-09-18T04:11:43.732Z,11.40
2022-09-18T04:14:11.707Z,11.40
2022-09-18T04:16:39.342Z,11.30
2022-09-18T04:19:06.506Z,11.20
2022-09-18T04:21:33.988Z,11.10
2022-09-18T04:24:01.489Z,11.10
2022-09-18T04:26:28.754Z,11.00
2022-09-18T04:28:56.252Z,10.90
2022-09-18T04:31:23.574Z,10.90
2022-09-18T04:33:51.048Z,10.80
2022-09-18T04:36:18.280Z,10.80
2022-09-18T04:38:45.492Z,10.70
2022-09-18T04:41:12.747Z,10.70
2022-09-18T04:43:39.943Z,10.70
2022-09-18T04:46:07.314Z,10.80
2022-09-18T04:48:34.584Z,10.80
2022-09-18T04:51:01.860Z,11.00
2022-09-18T04:53:29.151Z,11.10
2022-09-18T04:55:56.880Z,11.10
2022-09-18T04:58:24.140Z,11.20
2022-09-18T05:00:51.541Z,11.20
2022-09-18T05:03:19.523Z,11.20
2022-09-18T05:05:46.928Z,11.20
2022-09-18T05:08:14.288Z,11.20
2022-09-18T05:10:42.847Z,11.20
2022-09-18T05:13:10.565Z,11.10
2022-09-18T05:15:40.066Z,11.10
2022-09-18T05:18:11.783Z,11.10
2022-09-18T05:20:39.974Z,11.20
2022-09-18T05:23:07.271Z,11.20
2022-09-18T05:25:34.557Z,11.30
2022-09-18T05:28:03.535Z,11.40
2022-09-18T05:30:31.973Z,11.50
2022-09-18T05:33:09.753Z,11.60
2022-09-18T05:35:39.710Z,11.60
2022-09-18T05:38:07.999Z,11.70
2022-09-18T05:40:37.826Z,11.70
2022-09-18T05:43:07.393Z,11.80
2022-09-18T05:45:35.152Z,11.80
2022-09-18T05:48:05.762Z,11.90
2022-09-18T05:50:35.293Z,12.00
2022-09-18T05:53:04.133Z,12.10
2022-09-18T05:55:33.312Z,12.20
2022-09-18T05:58:02.966Z,12.20
2022-09-18T06:00:32.892Z,12.30
2022-09-18T06:03:03.287Z,12.40
2022-09-18T06:05:33.895Z,12.50
2022-09-18T06:08:02.624Z,12.50
2022-09-18T06:10:30.691Z,12.60
2022-09-18T06:13:03.165Z,12.70
2022-09-18T06:15:30.745Z,12.80
2022-09-18T06:17:58.399Z,12.70
2022-09-18T06:20:26.751Z,12.80
2022-09-18T06:22:54.706Z,12.80
2022-09-18T06:25:23.888Z,12.90
2022-09-18T06:27:58.385Z,13.00
2022-09-18T06:30:28.660Z,13.00
2022-09-18T06:32:57.019Z,12.90
2022-09-18T06:35:24.512Z,12.90
2022-09-18T06:37:51.746Z,12.90
2022-09-18T06:40:19.181Z,12.90
2022-09-18T06:42:46.472Z,12.90
2022-09-18T06:45:13.751Z,13.00
2022-09-18T06:47:40.961Z,13.10
2022-09-18T06:50:09.049Z,13.20
2022-09-18T06:52:36.235Z,13.20
2022-09-18T06:55:03.726Z,13.20
2022-09-18T06:57:31.258Z,13.30
2022-09-18T06:59:58.748Z,13.30
2022-09-18T07:02:26.001Z,13.30
2022-09-18T07:04:53.204Z,13.30
2022-09-18T07:07:20.457Z,13.30
2022-09-18T07:09:48.024Z,13.40
2022-09-18T07:12:15.218Z,13.50
2022-09-18T07:14:42.571Z,13.60
2022-09-18T07:17:18.092Z,13.60
2022-09-18T07:19:46.507Z,13.70
2022-09-18T07:22:14.873Z,13.80
2022-09-18T07:24:43.464Z,13.80
2022-09-18T07:27:10.769Z,13.70
2022-09-18T07:29:41.607Z,13.80
2022-09-18T07:32:09.031Z,13.70
2022-09-18T07:34:36.335Z,13.80
2022-09-18T07:37:06.542Z,13.80
2022-09-18T07:39:33.793Z,13.80
2022-09-18T07:42:03.598Z,13.80
2022-09-18T07:44:34.409Z,13.70
2022-09-18T07:47:02.239Z,13.80
2022-09-18T07:49:29.833Z,13.90
2022-09-18T07:51:57.058Z,14.00
2022-09-18T07:54:24.748Z,14.20
2022-09-18T07:56:51.983Z,14.30
2022-09-18T07:59:19.328Z,14.40
2022-09-18T08:01:46.713Z,14.50
2022-09-18T08:04:14.203Z,14.50
2022-09-18T08:06:41.498Z,14.50
2022-09-18T08:09:08.797Z,14.50
2022-09-18T08:11:36.016Z,14.40
2022-09-18T08:14:03.255Z,14.40
2022-09-18T08:16:30.642Z,14.40
2022-09-18T08:18:58.020Z,14.50
2022-09-18T08:21:25.536Z,14.60
2022-09-18T08:23:53.001Z,14.70
2022-09-18T08:26:22.488Z,14.60
2022-09-18T08:28:50.187Z,14.70
2022-09-18T08:31:17.723Z,14.70
2022-09-18T08:33:45.844Z,14.90
2022-09-18T08:36:15.330Z,15.00
2022-09-18T08:38:42.591Z,15.10
2022-09-18T08:41:31.855Z,15.20
2022-09-18T08:44:24.296Z,15.40
2022-09-18T08:47:52.910Z,15.40
2022-09-18T08:50:29.369Z,15.30
2022-09-18T08:53:06.941Z,15.40
2022-09-18T08:55:41.430Z,15.50
2022-09-18T08:58:16.986Z,15.40
2022-09-18T09:01:00.825Z,15.30
2022-09-18T09:03:47.011Z,15.30
2022-09-18T09:06:56.647Z,15.30
2022-09-18T09:09:53.920Z,15.40
2022-09-18T09:12:59.670Z,15.50
2022-09-18T09:15:42.755Z,15.50
2022-09-18T09:18:22.067Z,15.50
2022-09-18T09:20:58.722Z,15.50
2022-09-18T09:24:09.944Z,15.40
2022-09-18T09:26:38.739Z,15.30
2022-09-18T09:29:20.219Z,15.20
2022-09-18T09:32:15.098Z,15.10
2022-09-18T09:34:57.325Z,15.30
2022-09-18T09:37:39.938Z,15.40
2022-09-18T09:40:17.254Z,15.70
2022-09-18T09:42:56.347Z,16.00
2022-09-18T09:45:36.734Z,16.40
2022-09-18T09:48:21.222Z,16.50
2022-09-18T09:51:22.229Z,16.60
2022-09-18T09:53:50.353Z,16.60
2022-09-18T09:56:43.063Z,16.80
2022-09-18T10:00:04.662Z,16.90
2022-09-18T10:02:49.895Z,17.00
2022-09-18T10:05:36.572Z,16.90
2022-09-18T10:08:41.005Z,17.10
2022-09-18T10:11:11.888Z,17.20
2022-09-18T10:13:50.006Z,17.30
2022-09-18T10:16:25.533Z,17.40
2022-09-18T10:18:53.441Z,17.40
2022-09-18T10:21:27.241Z,17.30
2022-09-18T10:24:15.382Z,17.40
2022-09-18T10:27:12.673Z,17.50
2022-09-18T10:29:40.965Z,17.40
2022-09-18T10:32:13.840Z,17.40
2022-09-18T10:34:47.713Z,17.60
2022-09-18T10:37:48.381Z,17.80
2022-09-18T10:40:40.650Z,17.80
2022-09-18T10:43:17.637Z,17.80
2022-09-18T10:45:54.203Z,17.80
2022-09-18T10:48:26.736Z,17.60
2022-09-18T10:51:04.908Z,17.80
2022-09-18T10:53:44.433Z,18.00
2022-09-18T10:56:21.094Z,18.30
2022-09-18T10:58:50.086Z,18.50
2022-09-18T11:01:19.178Z,18.50
2022-09-18T11:04:05.413Z,18.40
2022-09-18T11:06:37.983Z,18.40
2022-09-18T11:09:11.181Z,18.20
2022-09-18T11:11:46.447Z,18.10
2022-09-18T11:14:26.158Z,18.10
2022-09-18T11:17:02.388Z,18.00
2022-09-18T11:19:38.295Z,17.90
2022-09-18T11:22:45.171Z,17.90
2022-09-18T11:25:26.626Z,17.90
2022-09-18T11:27:59.711Z,17.90
2022-09-18T11:30:34.960Z,18.00
2022-09-18T11:33:31.054Z,18.10
2022-09-18T11:36:05.879Z,17.90
2022-09-18T11:38:41.186Z,17.80
2022-09-18T11:41:13.232Z,17.90
2022-09-18T11:43:43.748Z,18.20
2022-09-18T11:46:52.926Z,18.30
2022-09-18T11:49:30.031Z,18.40
2022-09-18T11:52:09.833Z,18.40
2022-09-18T11:54:57.341Z,18.30
2022-09-18T11:57:37.213Z,18.00
2022-09-18T12:00:21.846Z,17.60
2022-09-18T12:03:11.142Z,17.40
2022-09-18T12:05:55.928Z,17.20
2022-09-18T12:08:43.163Z,17.00
2022-09-18T12:11:24.015Z,16.80
2022-09-18T12:14:46.279Z,16.50
2022-09-18T12:17:27.833Z,16.40
2022-09-18T12:20:10.220Z,16.30
2022-09-18T12:22:56.521Z,16.40
2022-09-18T12:25:49.769Z,16.40
2022-09-18T12:28:30.767Z,16.40
2022-09-18T12:31:33.133Z,16.20
2022-09-18T12:34:29.456Z,16.10
2022-09-18T12:37:24.989Z,16.20
2022-09-18T12:40:30.946Z,16.10
2022-09-18T12:43:23.917Z,16.10
2022-09-18T12:46:04.845Z,16.20
2022-09-18T12:48:54.445Z,16.00
2022-09-18T12:51:40.942Z,15.90
2022-09-18T12:54:49.845Z,15.90
2022-09-18T12:57:55.768Z,15.90
2022-09-18T13:00:25.628Z,15.90
2022-09-18T13:03:03.400Z,15.80
2022-09-18T13:05:42.658Z,15.90
2022-09-18T13:08:28.725Z,15.90
2022-09-18T13:11:24.763Z,16.00
2022-09-18T13:14:01.590Z,16.00
2022-09-18T13:16:55.695Z,16.00
2022-09-18T13:19:29.592Z,16.00
2022-09-18T13:22:02.580Z,16.00
2022-09-18T13:24:34.744Z,16.10
2022-09-18T13:27:13.212Z,16.30
2022-09-18T13:29:47.937Z,16.30
2022-09-18T13:32:22.489Z,16.30
2022-09-18T13:35:00.314Z,16.20
2022-09-18T13:37:30.973Z,16.10
2022-09-18T13:40:17.148Z,15.80
2022-09-18T13:42:44.689Z,15.30
2022-09-18T13:45:26.199Z,14.40
2022-09-18T13:48:13.086Z,14.00
2022-09-18T13:51:01.063Z,13.60
2022-09-18T13:53:44.106Z,13.40
2022-09-18T13:56:17.380Z,13.20
2022-09-18T13:59:00.420Z,13.00
2022-09-18T14:02:02.606Z,12.90
2022-09-18T14:04:39.234Z,12.90
2022-09-18T14:07:18.821Z,13.00
2022-09-18T14:09:58.235Z,13.20
2022-09-18T14:12:33.845Z,13.50
2022-09-18T14:15:21.803Z,13.70
2022-09-18T14:18:16.405Z,13.90
2022-09-18T14:20:51.407Z,14.10
2022-09-18T14:23:48.888Z,14.10
2022-09-18T14:26:31.982Z,14.20
2022-09-18T14:29:17.866Z,14.30
2022-09-18T14:31:47.924Z,14.30
2022-09-18T14:34:34.723Z,14.30
2022-09-18T14:37:36.266Z,14.30
2022-09-18T14:40:20.584Z,14.40
2022-09-18T14:42:48.890Z,14.40
2022-09-18T14:45:31.048Z,14.30
2022-09-18T14:48:20.589Z,14.40
2022-09-18T14:51:18.183Z,14.40
2022-09-18T14:53:53.342Z,14.30
2022-09-18T14:56:37.163Z,14.30
2022-09-18T14:59:16.132Z,14.30
2022-09-18T15:01:44.785Z,14.40
2022-09-18T15:04:21.235Z,14.40
2022-09-18T15:06:55.639Z,14.50
2022-09-18T15:09:37.524Z,14.50
2022-09-18T15:12:16.889Z,14.50
2022-09-18T15:14:47.727Z,14.60
2022-09-18T15:17:28.522Z,14.70
2022-09-18T15:20:15.751Z,14.80
2022-09-18T15:22:43.711Z,14.90
2022-09-18T15:25:16.591Z,14.90
2022-09-18T15:27:45.196Z,14.80
2022-09-18T15:30:21.622Z,14.90
2022-09-18T15:32:58.994Z,14.90
2022-09-18T15:35:33.180Z,14.90
2022-09-18T15:38:05.696Z,14.90
2022-09-18T15:40:37.890Z,15.00
2022-09-18T15:43:27.402Z,15.10
2022-09-18T15:46:06.553Z,15.00
2022-09-18T15:48:37.799Z,15.00
2022-09-18T15:51:27.012Z,14.90
2022-09-18T15:54:21.378Z,14.90
2022-09-18T15:56:56.362Z,14.80
2022-09-18T15:59:40.559Z,14.70
2022-09-18T16:02:32.657Z,14.70
2022-09-18T16:05:13.148Z,14.70
2022-09-18T16:07:52.780Z,14.60
2022-09-18T16:10:38.151Z,14.60
2022-09-18T16:13:14.613Z,14.50
2022-09-18T16:15:52.031Z,14.50
2022-09-18T16:18:31.433Z,14.50
2022-09-18T16:21:08.799Z,14.40
2022-09-18T16:24:01.397Z,14.40
2022-09-18T16:26:30.879Z,14.40
2022-09-18T16:29:26.095Z,14.30
2022-09-18T16:31:54.744Z,14.30
2022-09-18T16:34:26.606Z,14.30
2022-09-18T16:36:55.322Z,14.20
2022-09-18T16:39:28.689Z,14.20
2022-09-18T16:41:55.957Z,14.20
2022-09-18T16:44:27.597Z,14.10
2022-09-18T16:47:08.411Z,14.10
2022-09-18T16:49:49.359Z,14.00
2022-09-18T16:52:16.746Z,13.90
2022-09-18T16:54:45.182Z,13.80
2022-09-18T16:57:23.668Z,13.80
2022-09-18T16:59:51.810Z,13.70
2022-09-18T17:02:25.406Z,13.60
2022-09-18T17:04:54.571Z,13.60
2022-09-18T17:07:21.775Z,13.50
2022-09-18T17:09:49.123Z,13.50
2022-09-18T17:12:16.400Z,13.40
2022-09-18T17:14:43.738Z,13.40
2022-09-18T17:17:17.129Z,13.40
2022-09-18T17:19:45.635Z,13.30
2022-09-18T17:22:13.652Z,13.30
2022-09-18T17:24:42.975Z,13.30
2022-09-18T17:27:10.456Z,13.30
2022-09-18T17:29:37.681Z,13.20
2022-09-18T17:32:06.372Z,13.20
2022-09-18T17:34:34.225Z,13.20
2022-09-18T17:37:08.282Z,13.30
2022-09-18T17:39:35.523Z,13.30
2022-09-18T17:42:03.398Z,13.20
2022-09-18T17:44:34.492Z,13.30
2022-09-18T17:47:02.188Z,13.30
2022-09-18T17:49:32.594Z,13.20
2022-09-18T17:52:00.339Z,13.30
2022-09-18T17:54:28.255Z,13.30
2022-09-18T17:56:55.776Z,13.30
2022-09-18T17:59:23.195Z,13.30
2022-09-18T18:01:51.742Z,13.40
2022-09-18T18:04:19.158Z,13.40
2022-09-18T18:06:49.427Z,13.40
2022-09-18T18:09:16.992Z,13.40
2022-09-18T18:11:46.261Z,13.40
2022-09-18T18:14:14.656Z,13.40
2022-09-18T18:16:42.128Z,13.40
2022-09-18T18:19:12.855Z,13.50
2022-09-18T18:21:42.589Z,13.50
2022-09-18T18:24:16.907Z,13.50
2022-09-18T18:26:48.145Z,13.50
2022-09-18T18:29:19.175Z,13.60
2022-09-18T18:31:49.521Z,13.60
2022-09-18T18:34:21.139Z,13.60
2022-09-18T18:36:51.268Z,13.60
2022-09-18T18:39:20.076Z,13.70
2022-09-18T18:41:48.664Z,13.70
2022-09-18T18:44:16.116Z,13.70
2022-09-18T18:46:43.870Z,13.70
2022-09-18T18:49:15.420Z,13.70
2022-09-18T18:51:47.962Z,13.60
2022-09-18T18:54:20.079Z,13.60
2022-09-18T18:56:49.073Z,13.60
2022-09-18T18:59:20.001Z,13.60
2022-09-18T19:01:47.745Z,13.50
2022-09-18T19:04:19.082Z,13.50
2022-09-18T19:06:46.582Z,13.50
2022-09-18T19:09:24.178Z,13.50
2022-09-18T19:11:53.253Z,13.50
2022-09-18T19:14:29.088Z,13.50
2022-09-18T19:16:56.687Z,13.50
2022-09-18T19:19:28.323Z,13.40
2022-09-18T19:21:59.768Z,13.50
2022-09-18T19:24:30.203Z,13.50
2022-09-18T19:26:58.932Z,13.40
2022-09-18T19:29:26.478Z,13.40
2022-09-18T19:31:53.893Z,13.40
2022-09-18T19:34:22.285Z,13.40
2022-09-18T19:36:50.782Z,13.40
2022-09-18T19:39:20.995Z,13.40
2022-09-18T19:41:52.408Z,13.30
2022-09-18T19:44:56.419Z,13.30
2022-09-18T19:47:29.712Z,13.30
2022-09-18T19:50:03.872Z,13.20
2022-09-18T19:52:31.264Z,13.30
2022-09-18T19:54:59.439Z,13.30
2022-09-18T19:57:32.294Z,13.30
2022-09-18T20:00:01.248Z,13.30
2022-09-18T20:02:28.676Z,13.30
2022-09-18T20:04:56.962Z,13.30
2022-09-18T20:07:24.967Z,13.30
2022-09-18T20:09:53.542Z,13.40
2022-09-18T20:12:20.901Z,13.40
2022-09-18T20:14:53.644Z,13.40
2022-09-18T20:17:20.944Z,13.40
2022-09-18T20:19:49.735Z,13.40
2022-09-18T20:22:16.908Z,13.40
2022-09-18T20:24:44.256Z,13.40
2022-09-18T20:27:12.775Z,13.40
2022-09-18T20:29:40.651Z,13.40
2022-09-18T20:32:07.963Z,13.40
2022-09-18T20:34:35.348Z,13.40
2022-09-18T20:37:03.480Z,13.40
2022-09-18T20:39:32.406Z,13.40
2022-09-18T20:42:00.797Z,13.40
2022-09-18T20:44:28.468Z,13.40
2022-09-18T20:46:56.859Z,13.40
2022-09-18T20:49:25.183Z,13.40
2022-09-18T20:51:52.600Z,13.40
2022-09-18T20:54:21.059Z,13.30
2022-09-18T20:56:48.152Z,13.40
2022-09-18T20:59:18.479Z,13.30
2022-09-18T21:01:47.493Z,13.30
2022-09-18T21:04:17.765Z,13.30
2022-09-18T21:06:56.681Z,13.30
2022-09-18T21:09:27.674Z,13.20
2022-09-18T21:11:59.869Z,13.30
2022-09-18T21:14:27.463Z,13.20
2022-09-18T21:16:55.785Z,13.30
2022-09-18T21:19:26.287Z,13.20
2022-09-18T21:21:54.189Z,13.20
2022-09-18T21:24:22.060Z,13.30
2022-09-18T21:26:50.598Z,13.30
2022-09-18T21:29:29.868Z,13.30
2022-09-18T21:32:01.409Z,13.30
2022-09-18T21:34:31.639Z,13.30
2022-09-18T21:37:08.239Z,13.30
2022-09-18T21:39:35.990Z,13.40
2022-09-18T21:42:08.738Z,13.40
2022-09-18T21:44:39.776Z,13.40
2022-09-18T21:47:10.824Z,13.40
2022-09-18T21:49:38.424Z,13.50
2022-09-18T21:52:09.820Z,13.50
2022-09-18T21:54:38.708Z,13.50
2022-09-18T21:57:06.412Z,13.50
2022-09-18T21:59:36.539Z,13.60
2022-09-18T22:02:04.864Z,13.60
2022-09-18T22:04:32.927Z,13.60
2022-09-18T22:07:02.360Z,13.60
2022-09-18T22:09:33.943Z,13.60
2022-09-18T22:12:01.715Z,13.70
2022-09-18T22:14:32.559Z,13.70
2022-09-18T22:17:08.338Z,13.70
2022-09-18T22:19:40.615Z,13.70
2022-09-18T22:22:08.891Z,13.70
2022-09-18T22:24:36.239Z,13.70
2022-09-18T22:27:08.690Z,13.70
2022-09-18T22:29:39.869Z,13.70
2022-09-18T22:32:08.989Z,13.80
2022-09-18T22:34:36.857Z,13.80
2022-09-18T22:37:05.610Z,13.80
2022-09-18T22:39:32.923Z,13.80
2022-09-18T22:42:00.904Z,13.80
2022-09-18T22:44:29.246Z,13.80
2022-09-18T22:46:56.589Z,13.80
2022-09-18T22:49:24.415Z,13.80
2022-09-18T22:51:52.440Z,13.80
2022-09-18T22:54:26.081Z,13.80
2022-09-18T22:56:54.492Z,13.80
2022-09-18T22:59:23.692Z,13.80
2022-09-18T23:02:04.219Z,13.80
2022-09-18T23:04:33.710Z,13.80
2022-09-18T23:07:01.966Z,13.80
2022-09-18T23:09:31.639Z,13.70
2022-09-18T23:12:02.304Z,13.70
2022-09-18T23:14:31.431Z,13.70
2022-09-18T23:17:00.542Z,13.70
2022-09-18T23:19:33.084Z,13.70
2022-09-18T23:22:01.382Z,13.70
2022-09-18T23:24:28.971Z,13.70
2022-09-18T23:26:58.452Z,13.80
2022-09-18T23:29:28.499Z,13.80
2022-09-18T23:31:57.567Z,13.80
2022-09-18T23:34:31.611Z,13.80
2022-09-18T23:37:00.281Z,13.80
2022-09-18T23:39:35.111Z,13.80
2022-09-18T23:42:05.810Z,13.80
2022-09-18T23:44:33.362Z,13.80
2022-09-18T23:47:01.393Z,13.80
2022-09-18T23:49:30.445Z,13.80
2022-09-18T23:51:59.506Z,13.80
2022-09-18T23:54:30.525Z,13.80
2022-09-18T23:56:58.294Z,13.80
2022-09-18T23:59:27.475Z,13.80
